createdAt,value
2019-04-13T00:02:26.995Z,-1.50
2019-04-13T00:07:34.408Z,-1.40
2019-04-13T00:12:41.714Z,-1.40
2019-04-13T00:17:50.348Z,-1.30
2019-04-13T00:22:57.830Z,-1.30
2019-04-13T00:28:07.458Z,-1.30
2019-04-13T00:33:14.938Z,-1.30
2019-04-13T00:38:22.359Z,-1.20
2019-04-13T00:43:29.747Z,-1.10
2019-04-13T00:48:37.024Z,-1.20
2019-04-13T00:53:44.239Z,-1.20
2019-04-13T00:58:51.523Z,-1.30
2019-04-13T01:03:58.640Z,-1.40
2019-04-13T01:09:08.596Z,-1.50
2019-04-13T01:14:16.346Z,-1.60
2019-04-13T01:19:23.597Z,-1.80
2019-04-13T01:24:30.853Z,-1.80
2019-04-13T01:29:38.212Z,-1.80
2019-04-13T01:34:45.661Z,-1.70
2019-04-13T01:39:53.132Z,-1.60
2019-04-13T01:45:00.397Z,-1.60
2019-04-13T01:50:08.813Z,-1.60
2019-04-13T01:55:16.071Z,-1.60
2019-04-13T02:00:28.482Z,-1.60
2019-04-13T02:05:49.611Z,-1.70
2019-04-13T02:11:00.596Z,-1.70
2019-04-13T02:16:07.792Z,-1.70
2019-04-13T02:21:15.047Z,-1.70
2019-04-13T02:26:22.128Z,-1.80
2019-04-13T02:31:29.696Z,-1.90
2019-04-13T02:36:36.837Z,-1.90
2019-04-13T02:41:44.321Z,-2.00
2019-04-13T02:46:51.529Z,-2.10
2019-04-13T02:51:58.710Z,-2.20
2019-04-13T02:57:06.188Z,-2.20
2019-04-13T03:02:13.362Z,-2.20
2019-04-13T03:07:20.605Z,-2.30
2019-04-13T03:12:27.981Z,-2.30
2019-04-13T03:17:50.005Z,-2.40
2019-04-13T03:22:57.122Z,-2.50
2019-04-13T03:28:04.503Z,-2.50
2019-04-13T03:33:11.560Z,-2.60
2019-04-13T03:38:18.693Z,-2.60
2019-04-13T03:43:25.854Z,-2.60
2019-04-13T03:48:33.439Z,-2.60
2019-04-13T03:53:40.589Z,-2.60
2019-04-13T03:58:48.155Z,-2.60
2019-04-13T04:03:55.364Z,-2.60
2019-04-13T04:09:05.681Z,-2.60
2019-04-13T04:14:12.871Z,-2.50
2019-04-13T04:19:19.932Z,-2.30
2019-04-13T04:24:26.994Z,-2.10
2019-04-13T04:29:34.083Z,-2.00
2019-04-13T04:34:41.170Z,-2.00
2019-04-13T04:39:48.241Z,-1.90
2019-04-13T04:44:55.383Z,-1.80
2019-04-13T04:50:02.613Z,-1.70
2019-04-13T04:55:09.815Z,-1.50
2019-04-13T05:00:16.880Z,-1.30
2019-04-13T05:05:23.914Z,-1.30
2019-04-13T05:10:30.996Z,-1.10
2019-04-13T05:15:38.163Z,-0.90
2019-04-13T05:20:45.276Z,-0.70
2019-04-13T05:25:52.327Z,-0.60
2019-04-13T05:30:59.503Z,-0.40
2019-04-13T05:36:06.769Z,-0.20
2019-04-13T05:41:13.973Z,0.00
2019-04-13T05:46:21.032Z,0.20
2019-04-13T05:51:29.272Z,0.80
2019-04-13T05:56:36.432Z,1.20
2019-04-13T06:01:43.705Z,1.30
2019-04-13T06:06:59.460Z,1.60
2019-04-13T06:11:59.631Z,2.10
2019-04-13T06:17:06.805Z,2.00
2019-04-13T06:22:16.408Z,1.90
2019-04-13T06:27:22.708Z,2.00
2019-04-13T06:32:45.026Z,2.30
2019-04-13T06:37:52.323Z,2.40
2019-04-13T06:42:59.437Z,2.70
2019-04-13T06:48:06.796Z,3.10
2019-04-13T06:53:15.158Z,3.70
2019-04-13T06:58:22.344Z,4.30
2019-04-13T07:03:30.012Z,4.70
2019-04-13T07:08:42.198Z,4.70
2019-04-13T07:13:55.110Z,4.30
2019-04-13T07:19:06.181Z,3.90
2019-04-13T07:24:11.035Z,3.70
2019-04-13T07:29:18.631Z,3.80
2019-04-13T07:34:26.025Z,3.90
2019-04-13T07:39:33.151Z,3.90
2019-04-13T07:45:03.198Z,4.00
2019-04-13T07:50:36.694Z,4.30
2019-04-13T07:55:43.980Z,4.70
2019-04-13T08:00:58.498Z,4.80
2019-04-13T08:06:03.678Z,5.20
2019-04-13T08:11:10.803Z,5.20
2019-04-13T08:16:18.004Z,5.10
2019-04-13T08:21:26.179Z,5.20
2019-04-13T08:26:34.590Z,5.40
2019-04-13T08:31:42.611Z,5.60
2019-04-13T08:36:49.762Z,5.70
2019-04-13T08:41:57.215Z,6.30
2019-04-13T08:47:05.997Z,6.90
2019-04-13T08:52:13.505Z,7.30
2019-04-13T08:57:21.013Z,7.40
2019-04-13T09:02:28.222Z,7.30
2019-04-13T09:07:36.057Z,7.00
2019-04-13T09:12:45.225Z,7.00
2019-04-13T09:18:14.765Z,7.20
2019-04-13T09:23:23.136Z,7.30
2019-04-13T09:28:30.422Z,7.80
2019-04-13T09:33:37.588Z,8.00
2019-04-13T09:38:46.664Z,8.10
2019-04-13T09:44:12.392Z,8.50
2019-04-13T09:49:20.364Z,8.80
2019-04-13T09:54:27.827Z,9.00
2019-04-13T09:59:35.096Z,9.20
2019-04-13T10:04:42.145Z,9.10
2019-04-13T10:09:51.222Z,8.90
2019-04-13T10:15:24.222Z,9.00
2019-04-13T10:20:31.339Z,9.10
2019-04-13T10:25:38.984Z,9.50
2019-04-13T10:30:51.241Z,10.10
2019-04-13T10:35:55.485Z,10.10
2019-04-13T10:41:02.589Z,9.90
2019-04-13T10:46:40.532Z,10.40
2019-04-13T10:51:52.344Z,10.30
2019-04-13T10:56:59.663Z,10.60
2019-04-13T11:02:06.777Z,10.80
2019-04-13T11:07:13.990Z,10.40
2019-04-13T11:12:21.081Z,10.20
2019-04-13T11:17:29.203Z,10.20
2019-04-13T11:22:37.947Z,10.50
2019-04-13T11:27:45.015Z,11.20
2019-04-13T11:32:52.097Z,11.30
2019-04-13T11:37:59.332Z,11.80
2019-04-13T11:43:28.482Z,12.20
2019-04-13T11:48:55.061Z,12.40
2019-04-13T11:54:04.027Z,12.80
2019-04-13T11:59:11.132Z,13.20
2019-04-13T12:04:37.266Z,12.70
2019-04-13T12:10:03.314Z,13.30
2019-04-13T12:15:40.117Z,13.80
2019-04-13T12:21:10.258Z,14.30
2019-04-13T12:26:17.319Z,15.00
2019-04-13T12:31:24.357Z,15.00
2019-04-13T12:36:32.241Z,17.20
2019-04-13T12:41:49.355Z,18.60
2019-04-13T12:46:56.409Z,20.00
2019-04-13T12:52:03.778Z,20.30
2019-04-13T12:57:10.872Z,21.10
2019-04-13T13:02:40.560Z,22.10
2019-04-13T13:07:48.774Z,22.90
2019-04-13T13:12:58.253Z,21.40
2019-04-13T13:18:07.524Z,19.40
2019-04-13T13:23:14.571Z,21.20
2019-04-13T13:28:21.662Z,21.70
2019-04-13T13:33:28.887Z,21.90
2019-04-13T13:38:39.038Z,19.10
2019-04-13T13:43:45.578Z,19.40
2019-04-13T13:49:01.865Z,19.20
2019-04-13T13:54:10.923Z,21.10
2019-04-13T13:59:18.765Z,22.30
2019-04-13T14:04:25.834Z,22.60
2019-04-13T14:09:33.120Z,23.20
2019-04-13T14:14:40.196Z,23.40
2019-04-13T14:19:47.404Z,21.40
2019-04-13T14:24:54.703Z,22.20
2019-04-13T14:30:02.262Z,23.30
2019-04-13T14:35:10.466Z,22.70
2019-04-13T14:40:17.572Z,22.20
2019-04-13T14:45:27.098Z,20.50
2019-04-13T14:50:35.890Z,21.40
2019-04-13T14:55:42.389Z,22.80
2019-04-13T15:00:49.747Z,23.20
2019-04-13T15:05:57.066Z,23.70
2019-04-13T15:11:16.341Z,23.30
2019-04-13T15:16:16.402Z,22.20
2019-04-13T15:21:25.247Z,18.60
2019-04-13T15:26:31.944Z,15.70
2019-04-13T15:31:41.262Z,16.60
2019-04-13T15:36:49.169Z,18.80
2019-04-13T15:42:05.792Z,18.10
2019-04-13T15:47:10.537Z,15.60
2019-04-13T15:52:14.540Z,15.50
2019-04-13T15:57:22.121Z,16.10
2019-04-13T16:02:29.510Z,17.60
2019-04-13T16:07:36.639Z,19.00
2019-04-13T16:12:51.397Z,19.20
2019-04-13T16:17:58.567Z,19.10
2019-04-13T16:23:06.805Z,18.20
2019-04-13T16:28:48.334Z,16.20
2019-04-13T16:34:05.128Z,15.70
2019-04-13T16:39:23.215Z,14.50
2019-04-13T16:44:39.593Z,12.90
2019-04-13T16:50:03.231Z,12.50
2019-04-13T16:55:26.661Z,11.60
2019-04-13T17:00:53.921Z,10.20
2019-04-13T17:06:03.235Z,10.00
2019-04-13T17:11:11.338Z,10.30
2019-04-13T17:16:19.094Z,10.00
2019-04-13T17:21:40.008Z,8.70
2019-04-13T17:27:08.104Z,7.40
2019-04-13T17:32:25.093Z,6.40
2019-04-13T17:37:32.245Z,5.70
2019-04-13T17:43:04.550Z,5.30
2019-04-13T17:48:33.451Z,5.00
2019-04-13T17:53:50.243Z,4.80
2019-04-13T17:59:16.296Z,4.50
2019-04-13T18:04:43.575Z,4.40
2019-04-13T18:10:23.265Z,4.30
2019-04-13T18:15:57.543Z,4.20
2019-04-13T18:21:08.450Z,4.00
2019-04-13T18:26:16.334Z,3.90
2019-04-13T18:31:23.564Z,3.80
2019-04-13T18:36:31.982Z,3.80
2019-04-13T18:41:39.575Z,3.70
2019-04-13T18:46:47.077Z,3.70
2019-04-13T18:51:54.441Z,3.70
2019-04-13T18:57:02.590Z,3.50
2019-04-13T19:02:10.375Z,3.50
2019-04-13T19:07:19.238Z,3.50
2019-04-13T19:12:26.438Z,3.40
2019-04-13T19:17:33.679Z,3.30
2019-04-13T19:22:42.343Z,3.20
2019-04-13T19:27:49.479Z,3.20
2019-04-13T19:32:56.593Z,3.10
2019-04-13T19:38:03.649Z,3.20
2019-04-13T19:43:16.259Z,3.10
2019-04-13T19:48:19.491Z,3.10
2019-04-13T19:53:44.208Z,3.00
2019-04-13T19:58:51.375Z,3.00
2019-04-13T20:03:59.749Z,3.00
2019-04-13T20:09:08.236Z,3.10
2019-04-13T20:14:19.071Z,3.10
2019-04-13T20:19:24.731Z,3.10
2019-04-13T20:24:31.857Z,3.10
2019-04-13T20:29:40.220Z,3.10
2019-04-13T20:34:48.739Z,3.00
2019-04-13T20:40:01.284Z,3.10
2019-04-13T20:45:09.704Z,3.10
2019-04-13T20:50:17.909Z,3.10
2019-04-13T20:55:26.164Z,3.20
2019-04-13T21:00:35.650Z,3.10
2019-04-13T21:05:42.947Z,3.20
2019-04-13T21:10:50.415Z,3.30
2019-04-13T21:15:59.583Z,3.30
2019-04-13T21:21:06.811Z,3.30
2019-04-13T21:26:15.124Z,3.30
2019-04-13T21:31:23.846Z,3.30
2019-04-13T21:36:31.158Z,3.30
2019-04-13T21:41:38.937Z,3.40
2019-04-13T21:46:46.235Z,3.40
2019-04-13T21:52:04.741Z,3.40
2019-04-13T21:57:12.290Z,3.50
2019-04-13T22:02:26.695Z,3.50
2019-04-13T22:07:35.161Z,3.50
2019-04-13T22:12:43.913Z,3.50
2019-04-13T22:17:50.952Z,3.50
2019-04-13T22:28:12.124Z,3.50
2019-04-13T22:33:17.459Z,3.50
2019-04-13T22:38:24.533Z,3.40
2019-04-13T22:43:32.573Z,3.40
2019-04-13T22:49:05.911Z,3.40
2019-04-13T22:54:27.913Z,3.50
2019-04-13T22:59:35.773Z,3.50
2019-04-13T23:04:43.003Z,3.40
2019-04-13T23:09:52.047Z,3.50
2019-04-13T23:15:07.504Z,3.40
2019-04-13T23:20:08.479Z,3.40
2019-04-13T23:25:15.951Z,3.40
2019-04-13T23:30:22.920Z,3.40
2019-04-13T23:35:30.214Z,3.40
2019-04-13T23:40:37.384Z,3.40
2019-04-13T23:45:45.271Z,3.40
2019-04-13T23:50:53.124Z,3.40
2019-04-13T23:56:19.444Z,3.40
